Time,TemperatureF,DewpointF,PressureIn,WindDirection,WindDirectionDegrees,WindSpeedMPH,WindSpeedGustMPH,Humidity,HourlyPrecipIn,Conditions,Clouds,dailyrainin,SoftwareType,DateUTC
2013-05-19 00:06:00,60.1,49.0,30.22,SE,138,1.0,3.0,67,0.00,,,0.00,weatherlink.com 1.10,2013-05-19 04:06:00,
2013-05-19 00:21:00,58.7,49.0,30.22,SE,132,0.0,3.0,70,0.00,,,0.00,weatherlink.com 1.10,2013-05-19 04:21:00,
2013-05-19 00:36:00,59.8,50.0,30.22,WSW,245,2.0,3.0,70,0.00,,,0.00,weatherlink.com 1.10,2013-05-19 04:36:00,
2013-05-19 00:51:00,59.4,50.0,30.22,South,184,0.0,3.0,71,0.00,,,0.00,weatherlink.com 1.10,2013-05-19 04:51:00,
2013-05-19 01:06:00,58.6,50.0,30.22,SE,133,0.0,3.0,73,0.00,,,0.00,weatherlink.com 1.10,2013-05-19 05:06:00,
2013-05-19 01:21:00,60.1,51.0,30.21,South,174,3.0,4.0,71,0.00,,,0.00,weatherlink.com 1.10,2013-05-19 05:21:00,
2013-05-19 01:36:00,58.5,51.0,30.21,SSE,153,1.0,4.0,76,0.00,,,0.00,weatherlink.com 1.10,2013-05-19 05:36:00,
2013-05-19 01:51:00,60.4,52.0,30.21,West,278,1.0,6.0,74,0.00,,,0.00,weatherlink.com 1.10,2013-05-19 05:51:00,
2013-05-19 02:06:00,58.4,52.0,30.21,SSW,203,2.0,6.0,78,0.00,,,0.00,weatherlink.com 1.10,2013-05-19 06:06:00,
2013-05-19 02:21:00,59.0,53.0,30.21,North,354,0.0,4.0,79,0.00,,,0.00,weatherlink.com 1.10,2013-05-19 06:21:00,
2013-05-19 02:36:00,58.4,52.0,30.21,SE,145,1.0,7.0,80,0.00,,,0.00,weatherlink.com 1.10,2013-05-19 06:36:00,
2013-05-19 02:51:00,57.6,53.0,30.20,SSE,157,3.0,7.0,83,0.00,,,0.00,weatherlink.com 1.10,2013-05-19 06:51:00,
2013-05-19 03:06:00,59.0,53.0,30.20,SSE,155,1.0,4.0,81,0.00,,,0.00,weatherlink.com 1.10,2013-05-19 07:06:00,
2013-05-19 03:21:00,57.0,53.0,30.20,SSE,155,2.0,6.0,86,0.00,,,0.00,weatherlink.com 1.10,2013-05-19 07:21:00,
2013-05-19 03:36:00,57.2,54.0,30.21,SE,124,1.0,5.0,88,0.02,,,0.02,weatherlink.com 1.10,2013-05-19 07:36:00,
2013-05-19 03:51:00,56.4,53.0,30.21,West,266,2.0,7.0,88,0.03,,,0.03,weatherlink.com 1.10,2013-05-19 07:51:00,
2013-05-19 04:06:00,55.9,53.0,30.20,SW,219,1.0,3.0,90,0.03,,,0.03,weatherlink.com 1.10,2013-05-19 08:06:00,
2013-05-19 04:21:00,56.5,53.0,30.20,SE,138,2.0,4.0,88,0.03,,,0.03,weatherlink.com 1.10,2013-05-19 08:21:00,
2013-05-19 04:36:00,55.9,53.0,30.20,SSE,156,0.0,3.0,90,0.01,,,0.03,weatherlink.com 1.10,2013-05-19 08:36:00,
2013-05-19 04:51:00,56.2,54.0,30.20,ESE,110,1.0,2.0,91,0.03,,,0.06,weatherlink.com 1.10,2013-05-19 08:51:00,
2013-05-19 05:06:00,56.3,54.0,30.20,SE,134,0.0,1.0,90,0.03,,,0.06,weatherlink.com 1.10,2013-05-19 09:06:00,
2013-05-19 05:21:00,56.0,53.0,30.20,WNW,287,0.0,2.0,89,0.03,,,0.06,weatherlink.com 1.10,2013-05-19 09:21:00,
2013-05-19 05:36:00,56.9,53.0,30.21,WSW,255,0.0,3.0,88,0.04,,,0.07,weatherlink.com 1.10,2013-05-19 09:36:00,
2013-05-19 05:51:00,56.3,53.0,30.21,SE,141,1.0,1.0,89,0.02,,,0.08,weatherlink.com 1.10,2013-05-19 09:51:00,
2013-05-19 06:06:00,55.9,53.0,30.21,West,273,0.0,1.0,90,0.02,,,0.08,weatherlink.com 1.10,2013-05-19 10:06:00,
2013-05-19 06:21:00,56.7,53.0,30.21,West,262,1.0,3.0,88,0.02,,,0.08,weatherlink.com 1.10,2013-05-19 10:21:00,
2013-05-19 06:36:00,56.1,53.0,30.22,SSE,152,0.0,2.0,90,0.01,,,0.08,weatherlink.com 1.10,2013-05-19 10:36:00,
2013-05-19 06:51:00,56.0,53.0,30.22,West,264,0.0,2.0,90,0.00,,,0.08,weatherlink.com 1.10,2013-05-19 10:51:00,
2013-05-19 07:06:00,56.2,53.0,30.22,SE,144,0.0,2.0,90,0.00,,,0.08,weatherlink.com 1.10,2013-05-19 11:06:00,
2013-05-19 07:22:00,56.0,54.0,30.23,WNW,283,0.0,1.0,91,0.01,,,0.09,weatherlink.com 1.10,2013-05-19 11:22:00,
2013-05-19 07:37:00,57.1,55.0,30.22,SE,145,0.0,3.0,92,0.01,,,0.09,weatherlink.com 1.10,2013-05-19 11:37:00,
2013-05-19 07:52:00,56.8,54.0,30.23,SSW,206,0.0,1.0,90,0.02,,,0.10,weatherlink.com 1.10,2013-05-19 11:52:00,
2013-05-19 08:07:00,56.6,54.0,30.23,WSW,246,0.0,1.0,92,0.03,,,0.11,weatherlink.com 1.10,2013-05-19 12:07:00,
2013-05-19 08:22:00,56.8,55.0,30.23,SE,131,0.0,1.0,92,0.03,,,0.12,weatherlink.com 1.10,2013-05-19 12:22:00,
2013-05-19 08:37:00,56.7,55.0,30.23,SE,139,0.0,3.0,92,0.04,,,0.13,weatherlink.com 1.10,2013-05-19 12:37:00,
2013-05-19 08:52:00,56.8,55.0,30.23,SW,233,0.0,2.0,92,0.03,,,0.13,weatherlink.com 1.10,2013-05-19 12:52:00,
2013-05-19 09:07:00,57.3,55.0,30.24,NE,45,0.0,2.0,92,0.02,,,0.13,weatherlink.com 1.10,2013-05-19 13:07:00,
2013-05-19 09:22:00,57.0,55.0,30.24,SSE,155,0.0,3.0,92,0.01,,,0.13,weatherlink.com 1.10,2013-05-19 13:22:00,
2013-05-19 09:37:00,57.0,55.0,30.24,SE,144,1.0,5.0,92,0.01,,,0.14,weatherlink.com 1.10,2013-05-19 13:37:00,
2013-05-19 09:52:00,58.6,55.0,30.24,SSW,205,0.0,3.0,89,0.01,,,0.14,weatherlink.com 1.10,2013-05-19 13:52:00,
2013-05-19 10:07:00,57.4,55.0,30.24,West,264,0.0,4.0,91,0.02,,,0.15,weatherlink.com 1.10,2013-05-19 14:07:00,
2013-05-19 10:22:00,57.5,56.0,30.24,SE,137,2.0,4.0,93,0.03,,,0.16,weatherlink.com 1.10,2013-05-19 14:22:00,
2013-05-19 10:37:00,57.8,56.0,30.24,SE,136,0.0,2.0,92,0.03,,,0.17,weatherlink.com 1.10,2013-05-19 14:37:00,
2013-05-19 10:52:00,57.7,55.0,30.24,WSW,250,0.0,2.0,92,0.04,,,0.18,weatherlink.com 1.10,2013-05-19 14:52:00,
2013-05-19 11:07:00,57.5,56.0,30.24,SSW,201,1.0,3.0,93,0.05,,,0.20,weatherlink.com 1.10,2013-05-19 15:07:00,
2013-05-19 11:22:00,57.4,55.0,30.24,South,179,2.0,2.0,93,0.05,,,0.21,weatherlink.com 1.10,2013-05-19 15:22:00,
2013-05-19 11:37:00,57.4,55.0,30.23,NNW,340,0.0,3.0,93,0.05,,,0.22,weatherlink.com 1.10,2013-05-19 15:37:00,
2013-05-19 11:52:00,57.5,56.0,30.23,SE,132,0.0,2.0,93,0.05,,,0.23,weatherlink.com 1.10,2013-05-19 15:52:00,
2013-05-19 12:07:00,57.6,56.0,30.23,SE,125,3.0,3.0,93,0.05,,,0.25,weatherlink.com 1.10,2013-05-19 16:07:00,
2013-05-19 12:22:00,57.5,56.0,30.22,NNE,12,1.0,3.0,93,0.05,,,0.26,weatherlink.com 1.10,2013-05-19 16:22:00,
2013-05-19 12:37:00,57.5,56.0,30.22,SE,145,0.0,3.0,94,0.05,,,0.27,weatherlink.com 1.10,2013-05-19 16:37:00,
2013-05-19 12:52:00,57.8,56.0,30.21,NW,305,0.0,2.0,94,0.05,,,0.29,weatherlink.com 1.10,2013-05-19 16:52:00,
2013-05-19 13:07:00,57.9,56.0,30.21,ESE,114,0.0,2.0,94,0.05,,,0.30,weatherlink.com 1.10,2013-05-19 17:07:00,
2013-05-19 13:22:00,58.0,56.0,30.20,NNE,15,0.0,3.0,94,0.05,,,0.31,weatherlink.com 1.10,2013-05-19 17:22:00,
2013-05-19 13:37:00,58.0,56.0,30.20,NW,326,2.0,3.0,94,0.04,,,0.32,weatherlink.com 1.10,2013-05-19 17:37:00,
2013-05-19 13:52:00,57.9,56.0,30.20,SE,134,1.0,4.0,94,0.06,,,0.35,weatherlink.com 1.10,2013-05-19 17:52:00,
2013-05-19 14:07:00,57.8,56.0,30.19,West,267,0.0,3.0,94,0.07,,,0.37,weatherlink.com 1.10,2013-05-19 18:07:00,
2013-05-19 14:22:00,57.7,56.0,30.19,West,278,0.0,2.0,94,0.07,,,0.38,weatherlink.com 1.10,2013-05-19 18:22:00,
2013-05-19 14:37:00,57.7,56.0,30.19,SSE,149,0.0,1.0,94,0.07,,,0.39,weatherlink.com 1.10,2013-05-19 18:37:00,
2013-05-19 14:52:00,57.7,56.0,30.18,NW,314,0.0,5.0,94,0.05,,,0.40,weatherlink.com 1.10,2013-05-19 18:52:00,
2013-05-19 15:07:00,57.8,56.0,30.18,SSE,162,1.0,3.0,94,0.03,,,0.40,weatherlink.com 1.10,2013-05-19 19:07:00,
2013-05-19 15:22:00,57.7,56.0,30.17,ESE,123,1.0,2.0,94,0.03,,,0.41,weatherlink.com 1.10,2013-05-19 19:22:00,
2013-05-19 15:37:00,57.8,56.0,30.16,NE,52,0.0,2.0,94,0.03,,,0.42,weatherlink.com 1.10,2013-05-19 19:37:00,
2013-05-19 15:52:00,57.9,56.0,30.16,North,355,0.0,2.0,94,0.03,,,0.43,weatherlink.com 1.10,2013-05-19 19:52:00,
2013-05-19 16:07:00,57.8,56.0,30.15,ESE,112,1.0,1.0,94,0.03,,,0.43,weatherlink.com 1.10,2013-05-19 20:07:00,
2013-05-19 16:22:00,57.8,56.0,30.15,ESE,110,0.0,2.0,94,0.03,,,0.44,weatherlink.com 1.10,2013-05-19 20:22:00,
2013-05-19 16:37:00,57.8,56.0,30.15,East,95,0.0,2.0,94,0.03,,,0.45,weatherlink.com 1.10,2013-05-19 20:37:00,
2013-05-19 16:52:00,57.5,56.0,30.15,ESE,117,0.0,7.0,94,0.03,,,0.46,weatherlink.com 1.10,2013-05-19 20:52:00,
2013-05-19 17:07:00,57.6,56.0,30.14,SW,231,0.0,2.0,95,0.04,,,0.47,weatherlink.com 1.10,2013-05-19 21:07:00,
2013-05-19 17:22:00,57.4,56.0,30.14,SSE,150,0.0,5.0,94,0.05,,,0.49,weatherlink.com 1.10,2013-05-19 21:22:00,
2013-05-19 17:37:00,58.7,56.0,30.14,ESE,102,1.0,4.0,92,0.05,,,0.50,weatherlink.com 1.10,2013-05-19 21:37:00,
2013-05-19 17:52:00,59.2,57.0,30.13,SE,127,2.0,4.0,91,0.05,,,0.51,weatherlink.com 1.10,2013-05-19 21:52:00,
2013-05-19 18:07:00,59.3,56.0,30.13,WSW,253,0.0,4.0,89,0.04,,,0.51,weatherlink.com 1.10,2013-05-19 22:07:00,
2013-05-19 18:22:00,57.7,56.0,30.14,SSE,166,0.0,4.0,93,0.03,,,0.52,weatherlink.com 1.10,2013-05-19 22:22:00,
2013-05-19 18:37:00,58.0,56.0,30.14,SSE,153,1.0,6.0,93,0.03,,,0.53,weatherlink.com 1.10,2013-05-19 22:37:00,
2013-05-19 18:52:00,57.4,56.0,30.14,West,271,0.0,4.0,94,0.02,,,0.53,weatherlink.com 1.10,2013-05-19 22:52:00,
2013-05-19 19:07:00,58.4,57.0,30.14,SE,135,0.0,3.0,94,0.01,,,0.53,weatherlink.com 1.10,2013-05-19 23:07:00,
2013-05-19 19:22:00,57.9,56.0,30.14,ESE,123,0.0,2.0,94,0.02,,,0.54,weatherlink.com 1.10,2013-05-19 23:22:00,
2013-05-19 19:37:00,58.7,58.0,30.13,SSE,156,2.0,3.0,96,0.01,,,0.54,weatherlink.com 1.10,2013-05-19 23:37:00,
2013-05-19 19:52:00,59.0,56.0,30.13,SE,140,0.0,1.0,91,0.01,,,0.54,weatherlink.com 1.10,2013-05-19 23:52:00,
2013-05-19 20:07:00,58.2,57.0,30.12,NW,314,0.0,1.0,94,0.02,,,0.55,weatherlink.com 1.10,2013-05-20 00:07:00,
2013-05-19 20:22:00,58.7,57.0,30.11,SE,131,0.0,1.0,93,0.01,,,0.55,weatherlink.com 1.10,2013-05-20 00:22:00,
2013-05-19 20:37:00,58.2,57.0,30.11,WNW,288,0.0,0.0,94,0.01,,,0.55,weatherlink.com 1.10,2013-05-20 00:37:00,
2013-05-19 20:52:00,59.0,57.0,30.11,ESE,113,0.0,3.0,94,0.01,,,0.55,weatherlink.com 1.10,2013-05-20 00:52:00,
2013-05-19 21:07:00,58.5,57.0,30.11,SW,231,0.0,0.0,94,0.00,,,0.55,weatherlink.com 1.10,2013-05-20 01:07:00,
2013-05-19 21:22:00,58.1,57.0,30.11,SW,221,0.0,0.0,95,0.00,,,0.55,weatherlink.com 1.10,2013-05-20 01:22:00,
2013-05-19 21:37:00,58.4,57.0,30.11,NW,326,0.0,2.0,94,0.01,,,0.56,weatherlink.com 1.10,2013-05-20 01:37:00,
2013-05-19 21:53:00,58.1,57.0,30.11,East,82,0.0,2.0,95,0.01,,,0.56,weatherlink.com 1.10,2013-05-20 01:53:00,
2013-05-19 22:08:00,59.8,59.0,30.11,SE,126,2.0,2.0,97,0.01,,,0.56,weatherlink.com 1.10,2013-05-20 02:08:00,
2013-05-19 22:23:00,61.6,58.0,30.12,West,260,0.0,3.0,87,0.01,,,0.56,weatherlink.com 1.10,2013-05-20 02:23:00,
2013-05-19 22:38:00,59.2,57.0,30.12,WSW,258,0.0,1.0,92,0.00,,,0.56,weatherlink.com 1.10,2013-05-20 02:38:00,
2013-05-19 22:53:00,63.3,59.0,30.12,WNW,297,1.0,3.0,85,0.00,,,0.56,weatherlink.com 1.10,2013-05-20 02:53:00,
2013-05-19 23:08:00,60.1,57.0,30.12,ESE,123,0.0,1.0,90,0.00,,,0.56,weatherlink.com 1.10,2013-05-20 03:08:00,
2013-05-19 23:23:00,58.9,57.0,30.11,East,98,0.0,0.0,93,0.00,,,0.56,weatherlink.com 1.10,2013-05-20 03:23:00,
2013-05-19 23:38:00,62.8,58.0,30.11,SSW,200,0.0,3.0,85,0.00,,,0.56,weatherlink.com 1.10,2013-05-20 03:38:00,
2013-05-19 23:53:00,59.3,57.0,30.10,NW,315,0.0,2.0,92,0.00,,,0.56,weatherlink.com 1.10,2013-05-20 03:53:00,